createdAt,value
2019-01-27T00:01:16.446Z,97512.75
2019-01-27T00:03:46.200Z,97511.00
2019-01-27T00:06:16.200Z,97505.16
2019-01-27T00:08:46.131Z,97501.27
2019-01-27T00:11:15.866Z,97497.58
2019-01-27T00:13:45.541Z,97497.77
2019-01-27T00:16:15.522Z,97480.88
2019-01-27T00:18:45.627Z,97482.45
2019-01-27T00:21:15.603Z,97469.61
2019-01-27T00:23:45.281Z,97457.58
2019-01-27T00:26:15.474Z,97466.17
2019-01-27T00:28:45.552Z,97465.65
2019-01-27T00:31:15.738Z,97448.64
2019-01-27T00:33:45.572Z,97440.08
2019-01-27T00:36:15.377Z,97444.83
2019-01-27T00:38:45.077Z,97441.51
2019-01-27T00:41:14.811Z,97439.82
2019-01-27T00:43:44.953Z,97428.50
2019-01-27T00:46:14.670Z,97435.26
2019-01-27T00:48:44.483Z,97420.39
2019-01-27T00:51:14.390Z,97416.69
2019-01-27T00:53:44.233Z,97395.66
2019-01-27T00:56:13.982Z,97400.66
2019-01-27T00:58:43.731Z,97387.97
2019-01-27T01:01:13.481Z,97388.45
2019-01-27T01:03:43.513Z,97392.58
2019-01-27T01:06:20.650Z,97388.47
2019-01-27T01:08:50.400Z,97382.16
2019-01-27T01:11:21.779Z,97384.45
2019-01-27T01:13:51.590Z,97382.88
2019-01-27T01:16:21.246Z,97368.72
2019-01-27T01:18:51.118Z,97368.95
2019-01-27T01:21:20.977Z,97351.51
2019-01-27T01:23:50.937Z,97348.55
2019-01-27T01:26:20.873Z,97348.58
2019-01-27T01:28:50.520Z,97350.05
2019-01-27T01:31:20.501Z,97335.45
2019-01-27T01:33:50.348Z,97350.91
2019-01-27T01:36:20.061Z,97336.64
2019-01-27T01:38:50.115Z,97327.00
2019-01-27T01:41:19.878Z,97336.41
2019-01-27T01:43:49.536Z,97327.41
2019-01-27T01:46:19.376Z,97323.98
2019-01-27T01:48:49.016Z,97312.41
2019-01-27T01:51:18.819Z,97312.66
2019-01-27T01:53:48.310Z,97309.51
2019-01-27T01:56:18.337Z,97300.82
2019-01-27T01:58:47.904Z,97303.78
2019-01-27T02:01:17.657Z,97301.43
2019-01-27T02:03:47.363Z,97305.67
2019-01-27T02:06:17.160Z,97307.42
2019-01-27T02:08:46.776Z,97290.84
2019-01-27T02:11:16.531Z,97284.00
2019-01-27T02:13:46.282Z,97293.78
2019-01-27T02:16:16.286Z,97284.75
2019-01-27T02:18:46.394Z,97276.81
2019-01-27T02:21:16.610Z,97264.32
2019-01-27T02:23:46.428Z,97260.48
2019-01-27T02:26:16.131Z,97248.87
2019-01-27T02:28:45.860Z,97232.23
2019-01-27T02:31:15.600Z,97230.31
2019-01-27T02:33:45.399Z,97227.42
2019-01-27T02:36:15.417Z,97217.17
2019-01-27T02:38:45.232Z,97206.87
2019-01-27T02:41:14.746Z,97205.98
2019-01-27T02:43:44.535Z,97190.75
2019-01-27T02:46:33.784Z,97191.55
2019-01-27T02:49:03.382Z,97174.67
2019-01-27T02:51:33.271Z,97175.72
2019-01-27T02:54:02.828Z,97169.93
2019-01-27T02:56:32.695Z,97163.84
2019-01-27T02:59:02.392Z,97155.67
2019-01-27T03:01:32.139Z,97144.27
2019-01-27T03:04:01.615Z,97141.39
2019-01-27T03:06:32.878Z,97131.60
2019-01-27T03:09:03.985Z,97125.29
2019-01-27T03:11:35.517Z,97127.91
2019-01-27T03:14:05.451Z,97123.43
2019-01-27T03:16:35.372Z,97108.91
2019-01-27T03:19:05.326Z,97104.69
2019-01-27T03:21:35.019Z,97109.16
2019-01-27T03:24:05.125Z,97103.36
2019-01-27T03:26:34.681Z,97093.31
2019-01-27T03:29:04.659Z,97094.64
2019-01-27T03:31:34.507Z,97089.09
2019-01-27T03:34:05.099Z,97078.28
2019-01-27T03:36:34.998Z,97082.47
2019-01-27T03:39:07.877Z,97061.34
2019-01-27T03:41:37.584Z,97056.08
2019-01-27T03:44:08.265Z,97045.24
2019-01-27T03:46:37.985Z,97046.05
2019-01-27T03:49:08.050Z,97037.32
2019-01-27T03:51:37.615Z,97023.08
2019-01-27T03:54:07.645Z,97027.05
2019-01-27T03:56:37.350Z,97030.20
2019-01-27T03:59:07.297Z,97019.89
2019-01-27T04:01:37.106Z,97014.36
2019-01-27T04:04:07.271Z,97011.45
2019-01-27T04:06:37.219Z,97009.88
2019-01-27T04:09:08.985Z,96996.66
2019-01-27T04:11:38.978Z,97001.95
2019-01-27T04:14:08.851Z,96997.73
2019-01-27T04:16:38.373Z,96980.86
2019-01-27T04:19:08.129Z,96983.70
2019-01-27T04:21:37.905Z,96971.84
2019-01-27T04:24:07.629Z,96973.17
2019-01-27T04:26:37.408Z,96968.17
2019-01-27T04:29:07.145Z,96956.79
2019-01-27T04:31:36.682Z,96949.69
2019-01-27T04:34:06.799Z,96959.20
2019-01-27T04:36:36.293Z,96943.34
2019-01-27T04:39:08.875Z,96937.72
2019-01-27T04:41:38.370Z,96942.77
2019-01-27T04:44:08.214Z,96941.26
2019-01-27T04:46:37.721Z,96844.25
2019-01-27T04:49:07.674Z,96890.78
2019-01-27T04:51:37.349Z,96896.63
2019-01-27T04:54:07.089Z,96893.97
2019-01-27T04:56:36.905Z,96896.06
2019-01-27T04:59:06.661Z,96891.33
2019-01-27T05:01:36.263Z,96884.72
2019-01-27T05:04:07.860Z,96880.49
2019-01-27T05:06:37.512Z,96873.58
2019-01-27T05:09:09.595Z,96883.30
2019-01-27T05:11:39.340Z,96892.88
2019-01-27T05:14:08.979Z,96899.55
2019-01-27T05:16:38.808Z,96898.73
2019-01-27T05:19:08.347Z,96890.98
2019-01-27T05:21:38.202Z,96882.84
2019-01-27T05:24:07.812Z,96883.06
2019-01-27T05:26:37.649Z,96881.73
2019-01-27T05:29:07.284Z,96885.81
2019-01-27T05:31:37.415Z,96868.10
2019-01-27T05:34:07.193Z,96865.45
2019-01-27T05:36:36.843Z,96863.61
2019-01-27T05:39:08.586Z,96879.48
2019-01-27T05:41:38.239Z,96866.45
2019-01-27T05:44:08.054Z,96874.70
2019-01-27T05:46:37.649Z,96871.84
2019-01-27T05:49:07.503Z,96870.80
2019-01-27T05:51:37.186Z,96864.93
2019-01-27T05:54:06.847Z,96862.56
2019-01-27T05:56:36.603Z,96868.09
2019-01-27T05:59:06.645Z,96874.44
2019-01-27T06:01:43.833Z,96860.70
2019-01-27T06:04:13.597Z,96863.10
2019-01-27T06:06:43.329Z,96860.72
2019-01-27T06:09:12.943Z,96868.12
2019-01-27T06:11:43.003Z,96859.44
2019-01-27T06:14:12.679Z,96849.83
2019-01-27T06:16:42.153Z,96849.77
2019-01-27T06:19:11.689Z,96857.23
2019-01-27T06:21:41.263Z,96854.88
2019-01-27T06:24:10.854Z,96859.38
2019-01-27T06:26:40.598Z,96853.09
2019-01-27T06:29:10.109Z,96834.75
2019-01-27T06:31:39.813Z,96833.83
2019-01-27T06:34:09.809Z,96824.00
2019-01-27T06:36:39.259Z,96842.25
2019-01-27T06:39:10.478Z,96840.66
2019-01-27T06:41:40.223Z,96823.45
2019-01-27T06:44:10.073Z,96832.97
2019-01-27T06:46:39.848Z,96833.02
2019-01-27T06:49:09.583Z,96835.89
2019-01-27T06:51:39.450Z,96843.88
2019-01-27T06:54:09.075Z,96852.15
2019-01-27T06:56:38.872Z,96848.93
2019-01-27T06:59:10.080Z,96843.34
2019-01-27T07:01:44.022Z,96848.62
2019-01-27T07:04:18.171Z,96844.17
2019-01-27T07:06:49.357Z,96843.11
2019-01-27T07:09:23.669Z,96838.11
2019-01-27T07:12:00.675Z,96840.28
2019-01-27T07:14:31.922Z,96838.62
2019-01-27T07:17:05.964Z,96833.87
2019-01-27T07:19:46.172Z,96835.86
2019-01-27T07:22:32.563Z,96833.89
2019-01-27T07:25:09.583Z,96833.30
2019-01-27T07:27:43.847Z,96827.03
2019-01-27T07:30:19.632Z,96818.40
2019-01-27T07:33:02.905Z,96820.31
2019-01-27T07:35:41.152Z,96828.12
2019-01-27T07:38:15.734Z,96826.55
2019-01-27T07:40:47.009Z,96827.15
2019-01-27T07:43:28.404Z,96830.80
2019-01-27T07:46:02.634Z,96826.89
2019-01-27T07:48:52.159Z,96824.22
2019-01-27T07:51:26.653Z,96813.39
2019-01-27T07:54:11.063Z,96826.83
2019-01-27T07:56:40.637Z,96822.80
2019-01-27T07:59:23.814Z,96822.52
2019-01-27T08:02:04.087Z,96812.36
2019-01-27T08:04:51.473Z,96819.09
2019-01-27T08:07:31.247Z,96820.50
2019-01-27T08:10:05.241Z,96822.16
2019-01-27T08:12:42.432Z,96815.83
2019-01-27T08:15:13.800Z,96823.22
2019-01-27T08:17:50.588Z,96815.95
2019-01-27T08:20:21.899Z,96811.94
2019-01-27T08:22:53.137Z,96827.30
2019-01-27T08:25:22.627Z,96808.95
2019-01-27T08:28:00.078Z,96819.95
2019-01-27T08:30:43.663Z,96817.61
2019-01-27T08:33:13.283Z,96810.62
2019-01-27T08:36:00.612Z,96808.64
2019-01-27T08:38:48.202Z,96819.29
2019-01-27T08:41:23.818Z,96806.36
2019-01-27T08:44:00.943Z,96823.59
2019-01-27T08:46:32.411Z,96819.25
2019-01-27T08:49:02.172Z,96820.66
2019-01-27T08:51:31.867Z,96815.50
2019-01-27T08:54:01.462Z,96806.56
2019-01-27T08:56:31.107Z,96819.25
2019-01-27T08:59:02.683Z,96815.45
2019-01-27T09:01:50.197Z,96810.62
2019-01-27T09:04:21.418Z,96814.41
2019-01-27T09:07:09.461Z,96813.48
2019-01-27T09:09:39.142Z,96830.66
2019-01-27T09:12:26.812Z,96806.86
2019-01-27T09:15:13.329Z,96812.56
2019-01-27T09:17:47.487Z,96803.42
2019-01-27T09:20:24.764Z,96812.55
2019-01-27T09:22:54.351Z,96818.70
2019-01-27T09:25:31.387Z,96822.78
2019-01-27T09:28:05.668Z,96821.42
2019-01-27T09:30:53.474Z,96836.34
2019-01-27T09:33:24.659Z,96829.55
2019-01-27T09:35:58.693Z,96837.55
2019-01-27T09:38:35.958Z,96832.17
2019-01-27T09:41:07.633Z,96826.25
2019-01-27T09:43:42.721Z,96835.22
2019-01-27T09:46:14.221Z,96836.47
2019-01-27T09:48:48.142Z,96841.52
2019-01-27T09:51:31.842Z,96843.28
2019-01-27T09:54:05.911Z,96855.27
2019-01-27T09:56:43.330Z,96840.81
2019-01-27T09:59:26.228Z,96847.44
2019-01-27T10:02:03.448Z,96852.24
2019-01-27T10:04:34.869Z,96852.42
2019-01-27T10:07:09.118Z,96847.18
2019-01-27T10:09:58.346Z,96851.64
2019-01-27T10:12:27.814Z,96856.03
2019-01-27T10:14:59.476Z,96846.77
2019-01-27T10:17:39.601Z,96847.08
2019-01-27T10:20:11.847Z,96845.72
2019-01-27T10:22:43.202Z,96846.34
2019-01-27T10:25:24.228Z,96852.20
2019-01-27T10:28:01.690Z,96846.56
2019-01-27T10:30:47.781Z,96845.51
2019-01-27T10:33:23.571Z,96833.90
2019-01-27T10:36:00.957Z,96836.56
2019-01-27T10:38:38.062Z,96833.50
2019-01-27T10:41:09.313Z,96835.02
2019-01-27T10:43:40.763Z,96830.37
2019-01-27T10:46:12.333Z,96842.53
2019-01-27T10:48:58.861Z,96845.97
2019-01-27T10:51:32.791Z,96851.88
2019-01-27T10:54:04.197Z,96844.33
2019-01-27T10:56:38.363Z,96864.33
2019-01-27T10:59:12.850Z,96872.37
2019-01-27T11:01:44.694Z,96870.95
2019-01-27T11:04:22.551Z,96871.48
2019-01-27T11:06:53.865Z,96871.66
2019-01-27T11:09:27.818Z,96870.76
2019-01-27T11:12:15.209Z,96857.48
2019-01-27T11:14:58.697Z,96843.88
2019-01-27T11:17:30.594Z,96858.94
2019-01-27T11:20:05.152Z,96851.22
2019-01-27T11:22:36.782Z,96846.65
2019-01-27T11:25:15.635Z,96852.47
2019-01-27T11:27:51.008Z,96853.77
2019-01-27T11:30:22.427Z,96836.63
2019-01-27T11:33:05.840Z,96837.40
2019-01-27T11:35:40.197Z,96840.83
2019-01-27T11:38:23.787Z,96831.69
2019-01-27T11:40:55.013Z,96831.56
2019-01-27T11:43:29.623Z,96846.00
2019-01-27T11:46:17.827Z,96832.91
2019-01-27T11:48:52.057Z,96837.06
2019-01-27T11:51:23.346Z,96827.80
2019-01-27T11:53:53.279Z,96825.52
2019-01-27T11:56:23.017Z,96815.24
2019-01-27T11:58:53.219Z,96799.16
2019-01-27T12:01:23.048Z,96772.67
2019-01-27T12:03:52.858Z,96754.87
2019-01-27T12:06:22.648Z,96757.74
2019-01-27T12:08:52.437Z,96744.52
2019-01-27T12:11:22.153Z,96738.74
2019-01-27T12:13:52.101Z,96745.51
2019-01-27T12:16:21.786Z,96748.22
2019-01-27T12:18:51.796Z,96738.00
2019-01-27T12:21:21.836Z,96737.47
2019-01-27T12:23:51.567Z,96739.75
2019-01-27T12:26:21.230Z,96745.69
2019-01-27T12:28:51.205Z,96731.94
2019-01-27T12:31:20.952Z,96725.98
2019-01-27T12:33:50.960Z,96726.50
2019-01-27T12:36:20.799Z,96714.29
2019-01-27T12:38:50.512Z,96715.58
2019-01-27T12:41:21.486Z,96708.13
2019-01-27T12:43:51.375Z,96693.61
2019-01-27T12:46:21.029Z,96700.73
2019-01-27T12:48:51.058Z,96706.92
2019-01-27T12:51:20.917Z,96709.12
2019-01-27T12:53:50.579Z,96701.81
2019-01-27T12:56:20.336Z,96694.19
2019-01-27T12:58:50.028Z,96677.59
2019-01-27T13:01:19.814Z,96690.39
2019-01-27T13:03:49.335Z,96681.70
2019-01-27T13:06:19.488Z,96668.77
2019-01-27T13:08:49.295Z,96678.71
2019-01-27T13:11:19.133Z,96695.18
2019-01-27T13:13:48.972Z,96696.64
2019-01-27T13:16:19.100Z,96698.91
2019-01-27T13:18:48.768Z,96692.98
2019-01-27T13:21:19.172Z,96686.39
2019-01-27T13:23:49.028Z,96693.45
2019-01-27T13:26:18.796Z,96697.80
2019-01-27T13:28:48.417Z,96690.34
2019-01-27T13:31:18.752Z,96686.83
2019-01-27T13:33:48.701Z,96686.06
2019-01-27T13:36:18.795Z,96680.67
2019-01-27T13:38:51.246Z,96684.39
2019-01-27T13:41:20.005Z,96683.06
2019-01-27T13:43:49.872Z,96690.22
2019-01-27T13:46:19.642Z,96688.13
2019-01-27T13:48:49.436Z,96680.83
2019-01-27T13:51:19.245Z,96678.13
2019-01-27T13:53:49.535Z,96692.02
2019-01-27T13:56:19.706Z,96688.48
2019-01-27T13:58:49.884Z,96669.59
2019-01-27T14:01:19.602Z,96672.41
2019-01-27T14:03:49.712Z,96672.92
2019-01-27T14:06:19.399Z,96664.55
2019-01-27T14:08:49.592Z,96674.80
2019-01-27T14:11:19.187Z,96680.13
2019-01-27T14:13:49.045Z,96689.88
2019-01-27T14:16:19.107Z,96684.56
2019-01-27T14:18:49.665Z,96699.61
2019-01-27T14:21:19.275Z,96672.14
2019-01-27T14:23:49.448Z,96670.52
2019-01-27T14:26:19.081Z,96676.98
2019-01-27T14:28:48.922Z,96666.05
2019-01-27T14:31:18.694Z,96667.58
2019-01-27T14:33:48.907Z,96655.11
2019-01-27T14:36:18.892Z,96613.77
2019-01-27T14:38:48.850Z,96612.64
2019-01-27T14:41:18.866Z,96621.45
2019-01-27T14:43:48.434Z,96622.70
2019-01-27T14:46:18.318Z,96636.40
2019-01-27T14:48:48.290Z,96632.19
2019-01-27T14:51:18.121Z,96623.46
2019-01-27T14:53:48.035Z,96634.11
2019-01-27T14:56:17.662Z,96626.77
2019-01-27T14:58:47.644Z,96617.05
2019-01-27T15:01:17.724Z,96630.45
2019-01-27T15:03:47.625Z,96626.97
2019-01-27T15:06:17.722Z,96621.11
2019-01-27T15:08:47.550Z,96633.08
2019-01-27T15:11:17.470Z,96627.27
2019-01-27T15:13:47.110Z,96640.61
2019-01-27T15:16:17.007Z,96650.45
2019-01-27T15:18:46.952Z,96660.16
2019-01-27T15:21:16.679Z,96659.27
2019-01-27T15:23:46.480Z,96671.64
2019-01-27T15:26:16.174Z,96658.76
2019-01-27T15:28:45.900Z,96644.14
2019-01-27T15:31:15.627Z,96650.95
2019-01-27T15:33:45.664Z,96645.18
2019-01-27T15:36:15.371Z,96646.27
2019-01-27T15:38:44.931Z,96643.13
2019-01-27T15:41:14.807Z,96644.18
2019-01-27T15:43:48.522Z,96643.56
2019-01-27T15:46:15.790Z,96650.47
2019-01-27T15:48:45.694Z,96659.78
2019-01-27T15:51:15.499Z,96649.20
2019-01-27T15:53:45.294Z,96655.47
2019-01-27T15:56:14.969Z,96647.33
2019-01-27T15:58:44.821Z,96643.27
2019-01-27T16:01:15.827Z,96642.78
2019-01-27T16:03:45.905Z,96646.65
2019-01-27T16:06:15.542Z,96651.70
2019-01-27T16:08:45.603Z,96663.21
2019-01-27T16:11:15.492Z,96652.53
2019-01-27T16:13:45.416Z,96674.13
2019-01-27T16:16:15.100Z,96702.50
2019-01-27T16:18:45.311Z,96695.44
2019-01-27T16:21:15.005Z,96702.16
2019-01-27T16:23:46.355Z,96705.78
2019-01-27T16:26:15.976Z,96698.40
2019-01-27T16:28:46.066Z,96704.38
2019-01-27T16:31:23.089Z,96716.13
2019-01-27T16:34:00.321Z,96710.72
2019-01-27T16:36:31.378Z,96710.83
2019-01-27T16:39:01.517Z,96717.04
2019-01-27T16:41:31.521Z,96709.97
2019-01-27T16:44:01.444Z,96716.28
2019-01-27T16:46:31.233Z,96712.69
2019-01-27T16:49:01.290Z,96702.33
2019-01-27T16:51:31.110Z,96720.62
2019-01-27T16:54:00.797Z,96725.97
2019-01-27T16:56:35.427Z,96717.61
2019-01-27T16:59:05.445Z,96719.70
2019-01-27T17:01:35.283Z,96716.84
2019-01-27T17:04:05.445Z,96699.14
2019-01-27T17:06:35.777Z,96707.56
2019-01-27T17:09:08.669Z,96708.39
2019-01-27T17:11:40.400Z,96713.36
2019-01-27T17:14:10.601Z,96705.22
2019-01-27T17:16:41.249Z,96715.73
2019-01-27T17:19:11.162Z,96743.90
2019-01-27T17:21:41.171Z,96742.19
2019-01-27T17:24:10.840Z,96765.69
2019-01-27T17:26:40.939Z,96781.92
2019-01-27T17:29:10.730Z,96790.20
2019-01-27T17:31:44.688Z,96781.39
2019-01-27T17:34:12.182Z,96780.75
2019-01-27T17:36:42.028Z,96776.53
2019-01-27T17:39:11.967Z,96778.75
2019-01-27T17:41:43.469Z,96778.78
2019-01-27T17:44:13.383Z,96772.45
2019-01-27T17:46:43.453Z,96768.67
2019-01-27T17:49:13.313Z,96769.84
2019-01-27T17:51:43.180Z,96766.03
2019-01-27T17:54:12.699Z,96761.95
2019-01-27T17:56:44.065Z,96769.14
2019-01-27T17:59:15.502Z,96778.45
2019-01-27T18:01:50.433Z,96800.37
2019-01-27T18:04:36.966Z,96802.98
2019-01-27T18:07:27.123Z,96796.97
2019-01-27T18:10:01.275Z,96821.61
2019-01-27T18:12:38.837Z,96822.59
2019-01-27T18:15:10.198Z,96832.13
2019-01-27T18:17:39.997Z,96837.76
2019-01-27T18:20:12.104Z,96836.27
2019-01-27T18:22:42.049Z,96845.75
2019-01-27T18:25:12.671Z,96842.35
2019-01-27T18:27:42.487Z,96850.22
2019-01-27T18:30:16.617Z,96850.12
2019-01-27T18:32:46.759Z,96863.66
2019-01-27T18:35:16.724Z,96867.55
2019-01-27T18:37:46.683Z,96869.99
2019-01-27T18:40:16.405Z,96872.89
2019-01-27T18:42:46.509Z,96899.63
2019-01-27T18:45:17.601Z,96916.16
2019-01-27T18:47:50.737Z,96905.20
2019-01-27T18:50:20.846Z,96912.09
2019-01-27T18:52:53.183Z,96918.39
2019-01-27T18:55:43.411Z,96918.98
2019-01-27T18:58:22.404Z,96914.94
2019-01-27T19:00:56.678Z,96932.48
2019-01-27T19:03:31.374Z,96930.26
2019-01-27T19:06:05.710Z,96929.86
2019-01-27T19:08:38.704Z,96916.72
2019-01-27T19:11:22.780Z,96931.73
2019-01-27T19:13:57.557Z,96923.53
2019-01-27T19:16:30.989Z,96944.84
2019-01-27T19:19:17.820Z,96934.44
2019-01-27T19:21:47.437Z,96950.61
2019-01-27T19:24:26.084Z,96956.70
2019-01-27T19:26:55.519Z,96949.88
2019-01-27T19:29:36.060Z,96954.65
2019-01-27T19:32:07.937Z,96946.59
2019-01-27T19:34:39.300Z,96951.64
2019-01-27T19:37:10.672Z,96949.78
2019-01-27T19:39:48.157Z,96963.06
2019-01-27T19:42:22.617Z,96965.69
2019-01-27T19:45:02.983Z,96968.37
2019-01-27T19:47:50.762Z,96972.04
2019-01-27T19:50:38.519Z,96971.35
2019-01-27T19:53:22.034Z,96964.70
2019-01-27T19:56:05.113Z,96967.92
2019-01-27T19:58:39.755Z,96956.34
2019-01-27T20:01:16.671Z,96979.33
2019-01-27T20:03:49.141Z,96977.19
2019-01-27T20:06:19.012Z,96999.34
2019-01-27T20:08:50.354Z,96993.48
2019-01-27T20:11:22.038Z,96991.56
2019-01-27T20:13:59.067Z,96991.90
2019-01-27T20:16:30.683Z,97004.85
2019-01-27T20:19:06.194Z,97009.31
2019-01-27T20:21:35.993Z,97014.86
2019-01-27T20:24:07.548Z,97013.83
2019-01-27T20:26:38.836Z,97019.63
2019-01-27T20:29:10.456Z,97023.84
2019-01-27T20:31:57.381Z,97031.78
2019-01-27T20:34:45.264Z,97037.27
2019-01-27T20:37:29.201Z,97048.33
2019-01-27T20:40:00.522Z,97029.39
2019-01-27T20:42:34.717Z,97047.34
2019-01-27T20:45:24.552Z,97030.73
2019-01-27T20:48:04.747Z,97030.98
2019-01-27T20:50:36.342Z,97037.84
2019-01-27T20:53:07.698Z,97039.45
2019-01-27T20:55:39.351Z,97052.08
2019-01-27T20:58:13.567Z,97039.44
2019-01-27T21:01:01.963Z,97036.27
2019-01-27T21:03:37.414Z,97050.28
2019-01-27T21:06:27.649Z,97053.17
2019-01-27T21:09:01.778Z,97057.66
2019-01-27T21:11:40.887Z,97051.84
2019-01-27T21:14:18.672Z,97052.63
2019-01-27T21:16:52.893Z,97070.86
2019-01-27T21:19:27.588Z,97069.28
2019-01-27T21:21:57.640Z,97058.33
2019-01-27T21:24:27.507Z,97086.45
2019-01-27T21:26:57.515Z,97070.34
2019-01-27T21:29:27.247Z,97073.52
2019-01-27T21:31:56.973Z,97081.69
2019-01-27T21:34:26.860Z,97088.67
2019-01-27T21:36:59.176Z,97072.45
2019-01-27T21:39:28.973Z,97093.81
2019-01-27T21:41:58.783Z,97082.90
2019-01-27T21:44:28.658Z,97069.02
2019-01-27T21:46:58.429Z,97083.52
2019-01-27T21:49:28.859Z,97076.35
2019-01-27T21:51:58.949Z,97075.35
2019-01-27T21:54:28.741Z,97077.98
2019-01-27T21:56:58.571Z,97081.69
2019-01-27T21:59:28.455Z,97089.77
2019-01-27T22:01:58.317Z,97083.52
2019-01-27T22:04:28.097Z,97094.12
2019-01-27T22:06:57.819Z,97099.33
2019-01-27T22:09:27.906Z,97100.62
2019-01-27T22:11:59.421Z,97098.86
2019-01-27T22:14:35.968Z,97108.65
2019-01-27T22:17:07.629Z,97124.91
2019-01-27T22:19:37.996Z,97116.25
2019-01-27T22:22:09.637Z,97119.97
2019-01-27T22:24:42.439Z,97115.93
2019-01-27T22:27:12.994Z,97118.10
2019-01-27T22:29:45.724Z,97124.97
2019-01-27T22:32:15.356Z,97116.28
2019-01-27T22:34:45.077Z,97130.28
2019-01-27T22:37:14.818Z,97139.22
2019-01-27T22:39:44.669Z,97128.34
2019-01-27T22:42:14.531Z,97127.37
2019-01-27T22:44:44.472Z,97127.63
2019-01-27T22:47:14.397Z,97142.11
2019-01-27T22:49:44.576Z,97139.22
2019-01-27T22:52:14.477Z,97135.28
2019-01-27T22:54:44.523Z,97124.52
2019-01-27T22:57:14.287Z,97123.89
2019-01-27T22:59:44.194Z,97134.48
2019-01-27T23:02:14.130Z,97129.48
2019-01-27T23:04:44.192Z,97149.50
2019-01-27T23:07:13.782Z,97153.27
2019-01-27T23:09:43.791Z,97160.06
2019-01-27T23:12:13.594Z,97150.89
2019-01-27T23:14:43.362Z,97163.05
2019-01-27T23:17:13.297Z,97165.09
2019-01-27T23:19:42.943Z,97166.95
2019-01-27T23:22:12.831Z,97166.05
2019-01-27T23:24:42.528Z,97159.53
2019-01-27T23:27:12.355Z,97163.89
2019-01-27T23:29:42.248Z,97167.64
2019-01-27T23:32:11.812Z,97160.72
2019-01-27T23:34:41.498Z,97156.84
2019-01-27T23:37:11.106Z,97160.14
2019-01-27T23:39:40.931Z,97165.53
2019-01-27T23:42:10.519Z,97172.80
2019-01-27T23:44:40.252Z,97162.67
2019-01-27T23:47:09.875Z,97179.02
2019-01-27T23:49:39.827Z,97173.77
2019-01-27T23:52:09.377Z,97173.52
2019-01-27T23:54:39.117Z,97182.45
2019-01-27T23:57:08.682Z,97190.36
2019-01-27T23:59:38.440Z,97182.30
